CheckWX is a tool to help pilots better visualize weather data.  It is not intended as a substitute for an official pre-flight weather briefing.

16:15:54 UTC

EGKA METAR
Shoreham Airport
Brighton, United Kingdom
Current

26 mins ago

EGKA 201550Z 21007KT 9999 FEW013 10/07 Q1021
Observed
Feb-20 @ 15:50 UTC
Wind
  • 210° at 7 KTS
Visibility
10,000+ meters
Flight Rules
VFR
Cloud Levels
  • Few at 1,300' AGL
Temperature
10°C / 50°F
Dewpoint
C / 45°F
Humidity
82%
Altimeter
30.15" Hg
Pressure
1020.92 hPa
Previous

56 mins ago

EGKA 201520Z 21009KT 9999 FEW013 10/07 Q1021
Observed
Feb-20 @ 15:20 UTC
Wind
  • 210° at 9 KTS
Visibility
10,000+ meters
Flight Rules
VFR
Cloud Levels
  • Few at 1,300' AGL
Temperature
10°C / 50°F
Dewpoint
C / 45°F
Humidity
82%
Altimeter
30.15" Hg
Pressure
1020.92 hPa
Previous

1 hour ago

EGKA 201450Z 21010KT 9999 FEW013 10/07 Q1021
Observed
Feb-20 @ 14:50 UTC
Wind
  • 210° at 10 KTS
Visibility
10,000+ meters
Flight Rules
VFR
Cloud Levels
  • Few at 1,300' AGL
Temperature
10°C / 50°F
Dewpoint
C / 45°F
Humidity
82%
Altimeter
30.15" Hg
Pressure
1020.92 hPa